sensor_id;sensor_type;location;lat;lon;timestamp;temperature;humidity
44435;DHT22;30138;20.964;105.830;2022-07-23T00:02:28;29.80;99.90
44435;DHT22;30138;20.964;105.830;2022-07-23T00:07:36;29.90;99.90
44435;DHT22;30138;20.964;105.830;2022-07-23T00:12:43;29.90;99.90
44435;DHT22;30138;20.964;105.830;2022-07-23T00:17:49;29.90;99.90
44435;DHT22;30138;20.964;105.830;2022-07-23T00:22:57;29.90;99.90
44435;DHT22;30138;20.964;105.830;2022-07-23T00:28:04;29.90;99.90
44435;DHT22;30138;20.964;105.830;2022-07-23T00:33:10;29.90;99.90
44435;DHT22;30138;20.964;105.830;2022-07-23T00:38:18;30.00;99.90
44435;DHT22;30138;20.964;105.830;2022-07-23T00:43:25;30.00;99.90
44435;DHT22;30138;20.964;105.830;2022-07-23T00:48:32;30.00;99.90
44435;DHT22;30138;20.964;105.830;2022-07-23T00:53:40;30.00;99.90
44435;DHT22;30138;20.964;105.830;2022-07-23T00:58:47;30.00;99.90
44435;DHT22;30138;20.964;105.830;2022-07-23T01:03:53;30.00;99.90
44435;DHT22;30138;20.964;105.830;2022-07-23T01:09:02;30.10;99.90
44435;DHT22;30138;20.964;105.830;2022-07-23T01:14:10;30.10;99.90
44435;DHT22;30138;20.964;105.830;2022-07-23T01:19:18;30.10;99.90
44435;DHT22;30138;20.964;105.830;2022-07-23T01:24:26;30.10;99.90
44435;DHT22;30138;20.964;105.830;2022-07-23T01:29:40;30.10;99.90
44435;DHT22;30138;20.964;105.830;2022-07-23T01:34:51;30.10;99.90
44435;DHT22;30138;20.964;105.830;2022-07-23T01:39:59;30.10;99.90
44435;DHT22;30138;20.964;105.830;2022-07-23T01:45:07;30.10;99.90
44435;DHT22;30138;20.964;105.830;2022-07-23T01:50:18;30.10;99.90
44435;DHT22;30138;20.964;105.830;2022-07-23T01:55:55;30.10;99.90
44435;DHT22;30138;20.964;105.830;2022-07-23T02:01:01;30.10;99.90
44435;DHT22;30138;20.964;105.830;2022-07-23T02:06:08;30.20;99.90
44435;DHT22;30138;20.964;105.830;2022-07-23T02:11:16;30.20;99.90
44435;DHT22;30138;20.964;105.830;2022-07-23T02:16:22;30.20;99.90
44435;DHT22;30138;20.964;105.830;2022-07-23T02:21:29;30.20;99.90
44435;DHT22;30138;20.964;105.830;2022-07-23T02:26:37;30.20;99.90
44435;DHT22;30138;20.964;105.830;2022-07-23T02:31:44;30.30;99.90
44435;DHT22;30138;20.964;105.830;2022-07-23T02:36:51;30.30;99.90
44435;DHT22;30138;20.964;105.830;2022-07-23T02:42:01;30.40;99.90
44435;DHT22;30138;20.964;105.830;2022-07-23T02:47:09;30.30;99.90
44435;DHT22;30138;20.964;105.830;2022-07-23T02:52:16;30.40;99.90
44435;DHT22;30138;20.964;105.830;2022-07-23T02:57:24;30.30;99.90
44435;DHT22;30138;20.964;105.830;2022-07-23T03:02:32;30.30;99.90
44435;DHT22;30138;20.964;105.830;2022-07-23T03:07:38;30.30;99.90
44435;DHT22;30138;20.964;105.830;2022-07-23T03:12:46;30.40;99.90
44435;DHT22;30138;20.964;105.830;2022-07-23T03:17:53;30.40;99.90
44435;DHT22;30138;20.964;105.830;2022-07-23T03:23:00;30.40;99.90
44435;DHT22;30138;20.964;105.830;2022-07-23T03:28:09;30.50;99.90
44435;DHT22;30138;20.964;105.830;2022-07-23T03:33:16;30.20;99.90
44435;DHT22;30138;20.964;105.830;2022-07-23T03:38:24;29.70;98.00
44435;DHT22;30138;20.964;105.830;2022-07-23T03:43:33;29.40;96.50
44435;DHT22;30138;20.964;105.830;2022-07-23T03:48:41;29.10;95.20
44435;DHT22;30138;20.964;105.830;2022-07-23T03:53:47;28.90;95.50
44435;DHT22;30138;20.964;105.830;2022-07-23T03:58:56;28.80;95.30
44435;DHT22;30138;20.964;105.830;2022-07-23T04:04:02;28.60;95.10
44435;DHT22;30138;20.964;105.830;2022-07-23T04:09:09;28.50;94.40
44435;DHT22;30138;20.964;105.830;2022-07-23T04:14:18;28.30;94.10
44435;DHT22;30138;20.964;105.830;2022-07-23T04:19:24;28.20;93.20
44435;DHT22;30138;20.964;105.830;2022-07-23T04:24:40;28.10;92.40
44435;DHT22;30138;20.964;105.830;2022-07-23T04:29:48;28.00;91.80
44435;DHT22;30138;20.964;105.830;2022-07-23T04:34:55;27.90;91.90
44435;DHT22;30138;20.964;105.830;2022-07-23T04:40:01;27.90;91.70
44435;DHT22;30138;20.964;105.830;2022-07-23T04:45:11;27.70;89.60
44435;DHT22;30138;20.964;105.830;2022-07-23T04:50:23;27.60;88.50
44435;DHT22;30138;20.964;105.830;2022-07-23T04:55:33;27.50;89.10
44435;DHT22;30138;20.964;105.830;2022-07-23T05:00:42;27.40;88.60
44435;DHT22;30138;20.964;105.830;2022-07-23T05:05:48;27.30;88.20
44435;DHT22;30138;20.964;105.830;2022-07-23T05:10:55;27.30;88.90
44435;DHT22;30138;20.964;105.830;2022-07-23T05:16:03;27.20;90.00
44435;DHT22;30138;20.964;105.830;2022-07-23T05:21:11;27.20;88.60
44435;DHT22;30138;20.964;105.830;2022-07-23T05:26:18;27.10;88.20
44435;DHT22;30138;20.964;105.830;2022-07-23T05:31:27;27.00;87.00
44435;DHT22;30138;20.964;105.830;2022-07-23T05:36:33;27.00;86.20
44435;DHT22;30138;20.964;105.830;2022-07-23T05:41:40;26.90;85.50
44435;DHT22;30138;20.964;105.830;2022-07-23T05:46:48;26.90;85.70
44435;DHT22;30138;20.964;105.830;2022-07-23T05:51:57;26.90;85.70
44435;DHT22;30138;20.964;105.830;2022-07-23T05:57:16;26.90;85.40
44435;DHT22;30138;20.964;105.830;2022-07-23T06:02:25;26.80;86.00
44435;DHT22;30138;20.964;105.830;2022-07-23T06:07:32;26.80;87.30
44435;DHT22;30138;20.964;105.830;2022-07-23T06:12:39;26.90;87.20
44435;DHT22;30138;20.964;105.830;2022-07-23T06:17:47;26.80;86.70
44435;DHT22;30138;20.964;105.830;2022-07-23T06:22:55;26.80;86.20
44435;DHT22;30138;20.964;105.830;2022-07-23T06:28:01;26.80;85.60
44435;DHT22;30138;20.964;105.830;2022-07-23T06:33:09;26.80;85.10
44435;DHT22;30138;20.964;105.830;2022-07-23T06:38:16;26.80;84.20
44435;DHT22;30138;20.964;105.830;2022-07-23T06:43:22;26.70;83.10
44435;DHT22;30138;20.964;105.830;2022-07-23T06:48:33;26.70;83.80
44435;DHT22;30138;20.964;105.830;2022-07-23T06:53:40;26.70;82.40
44435;DHT22;30138;20.964;105.830;2022-07-23T06:58:47;26.70;82.80
44435;DHT22;30138;20.964;105.830;2022-07-23T07:03:55;26.80;82.90
44435;DHT22;30138;20.964;105.830;2022-07-23T07:09:01;26.70;82.30
44435;DHT22;30138;20.964;105.830;2022-07-23T07:14:09;26.70;81.40
44435;DHT22;30138;20.964;105.830;2022-07-23T07:19:17;26.70;81.30
44435;DHT22;30138;20.964;105.830;2022-07-23T07:24:23;26.70;81.10
44435;DHT22;30138;20.964;105.830;2022-07-23T07:29:30;26.70;81.30
44435;DHT22;30138;20.964;105.830;2022-07-23T07:34:38;26.70;81.00
44435;DHT22;30138;20.964;105.830;2022-07-23T07:39:44;26.80;81.30
44435;DHT22;30138;20.964;105.830;2022-07-23T07:44:51;26.80;80.70
44435;DHT22;30138;20.964;105.830;2022-07-23T07:50:03;26.80;79.90
44435;DHT22;30138;20.964;105.830;2022-07-23T07:55:11;26.70;79.20
44435;DHT22;30138;20.964;105.830;2022-07-23T08:00:18;26.80;78.90
44435;DHT22;30138;20.964;105.830;2022-07-23T08:05:28;26.80;78.40
44435;DHT22;30138;20.964;105.830;2022-07-23T08:10:35;26.80;77.70
44435;DHT22;30138;20.964;105.830;2022-07-23T08:15:43;26.70;77.30
44435;DHT22;30138;20.964;105.830;2022-07-23T08:20:52;26.80;76.80
44435;DHT22;30138;20.964;105.830;2022-07-23T08:25:58;26.80;76.40
44435;DHT22;30138;20.964;105.830;2022-07-23T08:31:08;26.70;76.00
44435;DHT22;30138;20.964;105.830;2022-07-23T08:36:37;26.80;75.80
44435;DHT22;30138;20.964;105.830;2022-07-23T08:41:45;26.70;75.40
44435;DHT22;30138;20.964;105.830;2022-07-23T08:46:53;26.70;75.40
44435;DHT22;30138;20.964;105.830;2022-07-23T08:52:05;26.70;75.00
44435;DHT22;30138;20.964;105.830;2022-07-23T08:57:13;26.70;75.70
44435;DHT22;30138;20.964;105.830;2022-07-23T09:02:19;26.70;76.40
44435;DHT22;30138;20.964;105.830;2022-07-23T09:07:27;26.70;74.90
44435;DHT22;30138;20.964;105.830;2022-07-23T09:12:34;26.70;77.00
44435;DHT22;30138;20.964;105.830;2022-07-23T09:17:42;26.70;75.70
44435;DHT22;30138;20.964;105.830;2022-07-23T09:22:51;26.80;75.30
44435;DHT22;30138;20.964;105.830;2022-07-23T09:27:59;26.80;77.40
44435;DHT22;30138;20.964;105.830;2022-07-23T09:33:09;26.90;77.40
44435;DHT22;30138;20.964;105.830;2022-07-23T09:38:21;27.00;76.70
44435;DHT22;30138;20.964;105.830;2022-07-23T09:43:28;27.00;75.80
44435;DHT22;30138;20.964;105.830;2022-07-23T09:48:34;27.10;75.30
44435;DHT22;30138;20.964;105.830;2022-07-23T09:53:42;27.10;75.00
44435;DHT22;30138;20.964;105.830;2022-07-23T09:58:50;27.10;74.90
44435;DHT22;30138;20.964;105.830;2022-07-23T10:04:05;27.10;75.30
44435;DHT22;30138;20.964;105.830;2022-07-23T10:09:40;27.10;75.00
44435;DHT22;30138;20.964;105.830;2022-07-23T10:15:07;27.10;75.40
44435;DHT22;30138;20.964;105.830;2022-07-23T10:20:14;27.10;75.40
44435;DHT22;30138;20.964;105.830;2022-07-23T10:25:29;27.10;75.10
44435;DHT22;30138;20.964;105.830;2022-07-23T10:30:45;27.10;74.70
44435;DHT22;30138;20.964;105.830;2022-07-23T10:35:59;27.10;74.40
44435;DHT22;30138;20.964;105.830;2022-07-23T10:41:11;27.10;74.10
44435;DHT22;30138;20.964;105.830;2022-07-23T10:46:24;27.10;75.10
44435;DHT22;30138;20.964;105.830;2022-07-23T10:51:34;27.10;74.40
44435;DHT22;30138;20.964;105.830;2022-07-23T10:57:05;27.10;74.10
44435;DHT22;30138;20.964;105.830;2022-07-23T11:02:24;27.10;74.10
44435;DHT22;30138;20.964;105.830;2022-07-23T11:07:31;27.10;74.10
44435;DHT22;30138;20.964;105.830;2022-07-23T11:12:39;27.10;74.30
44435;DHT22;30138;20.964;105.830;2022-07-23T11:17:59;27.10;74.40
44435;DHT22;30138;20.964;105.830;2022-07-23T11:23:05;27.10;75.00
44435;DHT22;30138;20.964;105.830;2022-07-23T11:28:16;27.00;74.90
44435;DHT22;30138;20.964;105.830;2022-07-23T11:33:28;27.10;75.30
44435;DHT22;30138;20.964;105.830;2022-07-23T11:38:36;27.00;76.40
44435;DHT22;30138;20.964;105.830;2022-07-23T11:43:46;27.00;76.80
44435;DHT22;30138;20.964;105.830;2022-07-23T11:49:02;27.00;77.30
44435;DHT22;30138;20.964;105.830;2022-07-23T11:54:08;27.00;77.80
44435;DHT22;30138;20.964;105.830;2022-07-23T11:59:17;27.10;77.60
44435;DHT22;30138;20.964;105.830;2022-07-23T12:04:24;27.00;76.80
44435;DHT22;30138;20.964;105.830;2022-07-23T12:09:33;27.10;77.00
44435;DHT22;30138;20.964;105.830;2022-07-23T12:14:50;27.10;80.30
44435;DHT22;30138;20.964;105.830;2022-07-23T12:19:58;27.20;84.90
44435;DHT22;30138;20.964;105.830;2022-07-23T12:25:09;27.30;86.80
44435;DHT22;30138;20.964;105.830;2022-07-23T12:30:22;27.30;86.90
44435;DHT22;30138;20.964;105.830;2022-07-23T12:35:33;27.40;86.60
44435;DHT22;30138;20.964;105.830;2022-07-23T12:40:44;27.30;87.40
44435;DHT22;30138;20.964;105.830;2022-07-23T12:45:54;27.40;88.10
44435;DHT22;30138;20.964;105.830;2022-07-23T12:51:02;27.40;88.60
44435;DHT22;30138;20.964;105.830;2022-07-23T12:56:10;27.50;89.00
44435;DHT22;30138;20.964;105.830;2022-07-23T13:01:27;27.50;89.60
44435;DHT22;30138;20.964;105.830;2022-07-23T13:06:36;27.50;89.00
44435;DHT22;30138;20.964;105.830;2022-07-23T13:11:44;27.50;88.90
44435;DHT22;30138;20.964;105.830;2022-07-23T13:16:54;27.50;89.10
44435;DHT22;30138;20.964;105.830;2022-07-23T13:22:00;27.50;88.50
44435;DHT22;30138;20.964;105.830;2022-07-23T13:27:10;27.50;88.70
44435;DHT22;30138;20.964;105.830;2022-07-23T13:32:18;27.40;88.70
44435;DHT22;30138;20.964;105.830;2022-07-23T13:37:25;27.40;88.80
44435;DHT22;30138;20.964;105.830;2022-07-23T13:42:31;27.40;88.50
44435;DHT22;30138;20.964;105.830;2022-07-23T13:47:39;27.40;88.90
44435;DHT22;30138;20.964;105.830;2022-07-23T13:52:46;27.40;87.90
44435;DHT22;30138;20.964;105.830;2022-07-23T13:57:52;27.40;87.50
44435;DHT22;30138;20.964;105.830;2022-07-23T14:03:00;27.30;86.30
44435;DHT22;30138;20.964;105.830;2022-07-23T14:08:07;27.20;84.60
44435;DHT22;30138;20.964;105.830;2022-07-23T14:13:14;27.10;82.80
44435;DHT22;30138;20.964;105.830;2022-07-23T14:18:23;27.00;81.40
44435;DHT22;30138;20.964;105.830;2022-07-23T14:23:29;27.00;80.80
44435;DHT22;30138;20.964;105.830;2022-07-23T14:28:35;26.90;80.30
44435;DHT22;30138;20.964;105.830;2022-07-23T14:33:44;26.80;79.60
44435;DHT22;30138;20.964;105.830;2022-07-23T14:38:51;26.70;78.70
44435;DHT22;30138;20.964;105.830;2022-07-23T14:43:57;26.70;78.50
44435;DHT22;30138;20.964;105.830;2022-07-23T14:49:05;26.60;78.40
44435;DHT22;30138;20.964;105.830;2022-07-23T14:54:12;26.50;77.70
44435;DHT22;30138;20.964;105.830;2022-07-23T14:59:18;26.40;78.10
44435;DHT22;30138;20.964;105.830;2022-07-23T15:04:27;26.40;78.20
44435;DHT22;30138;20.964;105.830;2022-07-23T15:09:33;26.30;78.40
44435;DHT22;30138;20.964;105.830;2022-07-23T15:14:39;26.30;77.60
44435;DHT22;30138;20.964;105.830;2022-07-23T15:19:48;26.20;77.50
44435;DHT22;30138;20.964;105.830;2022-07-23T15:24:54;26.20;77.50
44435;DHT22;30138;20.964;105.830;2022-07-23T15:30:01;26.20;78.20
44435;DHT22;30138;20.964;105.830;2022-07-23T15:35:09;26.10;78.90
44435;DHT22;30138;20.964;105.830;2022-07-23T15:40:16;26.10;79.10
44435;DHT22;30138;20.964;105.830;2022-07-23T15:45:22;26.10;78.60
44435;DHT22;30138;20.964;105.830;2022-07-23T15:50:31;26.00;78.00
44435;DHT22;30138;20.964;105.830;2022-07-23T15:55:38;26.00;78.70
44435;DHT22;30138;20.964;105.830;2022-07-23T16:00:46;26.00;78.90
44435;DHT22;30138;20.964;105.830;2022-07-23T16:05:53;25.90;78.60
44435;DHT22;30138;20.964;105.830;2022-07-23T16:11:00;25.90;79.10
44435;DHT22;30138;20.964;105.830;2022-07-23T16:16:06;25.90;79.10
44435;DHT22;30138;20.964;105.830;2022-07-23T16:21:14;25.90;79.20
44435;DHT22;30138;20.964;105.830;2022-07-23T16:26:21;25.90;79.30
44435;DHT22;30138;20.964;105.830;2022-07-23T16:31:27;25.80;78.90
44435;DHT22;30138;20.964;105.830;2022-07-23T16:36:36;25.80;78.90
44435;DHT22;30138;20.964;105.830;2022-07-23T16:41:42;25.80;79.00
44435;DHT22;30138;20.964;105.830;2022-07-23T16:46:49;25.80;78.20
44435;DHT22;30138;20.964;105.830;2022-07-23T16:51:57;25.80;79.40
44435;DHT22;30138;20.964;105.830;2022-07-23T16:57:04;25.80;79.20
44435;DHT22;30138;20.964;105.830;2022-07-23T17:02:10;25.80;79.60
44435;DHT22;30138;20.964;105.830;2022-07-23T17:07:19;25.70;80.10
44435;DHT22;30138;20.964;105.830;2022-07-23T17:12:26;25.70;80.50
44435;DHT22;30138;20.964;105.830;2022-07-23T17:17:32;25.70;81.00
44435;DHT22;30138;20.964;105.830;2022-07-23T17:22:40;25.70;81.40
44435;DHT22;30138;20.964;105.830;2022-07-23T17:27:49;25.70;82.00
44435;DHT22;30138;20.964;105.830;2022-07-23T17:32:55;25.70;82.70
44435;DHT22;30138;20.964;105.830;2022-07-23T17:38:03;25.70;82.80
44435;DHT22;30138;20.964;105.830;2022-07-23T17:43:09;25.70;81.90
44435;DHT22;30138;20.964;105.830;2022-07-23T17:48:16;25.70;82.20
44435;DHT22;30138;20.964;105.830;2022-07-23T17:53:24;25.70;82.20
44435;DHT22;30138;20.964;105.830;2022-07-23T17:58:31;25.70;82.60
44435;DHT22;30138;20.964;105.830;2022-07-23T18:03:39;25.70;82.60
44435;DHT22;30138;20.964;105.830;2022-07-23T18:08:48;25.70;83.10
44435;DHT22;30138;20.964;105.830;2022-07-23T18:13:54;25.60;83.00
44435;DHT22;30138;20.964;105.830;2022-07-23T18:19:02;25.60;81.30
44435;DHT22;30138;20.964;105.830;2022-07-23T18:24:10;25.60;80.80
44435;DHT22;30138;20.964;105.830;2022-07-23T18:29:17;25.60;80.80
44435;DHT22;30138;20.964;105.830;2022-07-23T18:34:24;25.60;80.40
44435;DHT22;30138;20.964;105.830;2022-07-23T18:39:32;25.50;79.50
44435;DHT22;30138;20.964;105.830;2022-07-23T18:44:38;25.50;79.90
44435;DHT22;30138;20.964;105.830;2022-07-23T18:49:45;25.50;83.20
44435;DHT22;30138;20.964;105.830;2022-07-23T18:54:53;25.60;86.30
44435;DHT22;30138;20.964;105.830;2022-07-23T18:59:59;25.70;86.70
44435;DHT22;30138;20.964;105.830;2022-07-23T19:05:06;25.70;84.00
44435;DHT22;30138;20.964;105.830;2022-07-23T19:10:15;25.70;83.70
44435;DHT22;30138;20.964;105.830;2022-07-23T19:15:22;25.80;85.60
44435;DHT22;30138;20.964;105.830;2022-07-23T19:20:28;25.80;90.10
44435;DHT22;30138;20.964;105.830;2022-07-23T19:25:36;25.70;81.30
44435;DHT22;30138;20.964;105.830;2022-07-23T19:30:43;25.50;71.20
44435;DHT22;30138;20.964;105.830;2022-07-23T19:35:49;25.60;74.80
44435;DHT22;30138;20.964;105.830;2022-07-23T19:40:59;25.80;86.00
44435;DHT22;30138;20.964;105.830;2022-07-23T19:46:06;26.00;92.00
44435;DHT22;30138;20.964;105.830;2022-07-23T19:51:12;26.10;86.70
44435;DHT22;30138;20.964;105.830;2022-07-23T19:56:21;26.10;81.50
44435;DHT22;30138;20.964;105.830;2022-07-23T20:01:27;26.30;90.60
44435;DHT22;30138;20.964;105.830;2022-07-23T20:06:33;26.40;87.30
44435;DHT22;30138;20.964;105.830;2022-07-23T20:11:42;26.30;76.50
44435;DHT22;30138;20.964;105.830;2022-07-23T20:16:49;26.40;85.80
44435;DHT22;30138;20.964;105.830;2022-07-23T20:21:55;26.50;91.50
44435;DHT22;30138;20.964;105.830;2022-07-23T20:27:05;26.60;94.00
44435;DHT22;30138;20.964;105.830;2022-07-23T20:32:11;26.80;96.80
44435;DHT22;30138;20.964;105.830;2022-07-23T20:37:17;27.00;99.40
44435;DHT22;30138;20.964;105.830;2022-07-23T20:42:25;27.10;99.90
44435;DHT22;30138;20.964;105.830;2022-07-23T20:47:33;27.30;99.90
44435;DHT22;30138;20.964;105.830;2022-07-23T20:52:39;27.40;99.90
44435;DHT22;30138;20.964;105.830;2022-07-23T20:57:48;27.50;99.90
44435;DHT22;30138;20.964;105.830;2022-07-23T21:02:55;27.60;99.90
44435;DHT22;30138;20.964;105.830;2022-07-23T21:08:01;27.70;99.90
44435;DHT22;30138;20.964;105.830;2022-07-23T21:13:09;27.90;99.90
44435;DHT22;30138;20.964;105.830;2022-07-23T21:18:15;28.00;99.90
44435;DHT22;30138;20.964;105.830;2022-07-23T21:23:21;28.10;99.90
44435;DHT22;30138;20.964;105.830;2022-07-23T21:28:29;28.20;99.90
44435;DHT22;30138;20.964;105.830;2022-07-23T21:33:36;28.30;99.90
44435;DHT22;30138;20.964;105.830;2022-07-23T21:38:43;28.30;99.90
44435;DHT22;30138;20.964;105.830;2022-07-23T21:43:50;28.30;97.20
44435;DHT22;30138;20.964;105.830;2022-07-23T21:48:56;28.10;95.60
44435;DHT22;30138;20.964;105.830;2022-07-23T21:54:03;28.10;99.80
44435;DHT22;30138;20.964;105.830;2022-07-23T21:59:11;28.10;99.90
44435;DHT22;30138;20.964;105.830;2022-07-23T22:04:18;28.20;99.90
44435;DHT22;30138;20.964;105.830;2022-07-23T22:09:24;28.20;99.90
44435;DHT22;30138;20.964;105.830;2022-07-23T22:14:32;28.30;99.90
44435;DHT22;30138;20.964;105.830;2022-07-23T22:19:38;28.30;99.90
44435;DHT22;30138;20.964;105.830;2022-07-23T22:24:45;28.40;99.90
44435;DHT22;30138;20.964;105.830;2022-07-23T22:29:53;28.40;99.90
44435;DHT22;30138;20.964;105.830;2022-07-23T22:34:59;28.50;99.90
44435;DHT22;30138;20.964;105.830;2022-07-23T22:40:06;28.50;99.50
44435;DHT22;30138;20.964;105.830;2022-07-23T22:45:15;28.30;95.90
44435;DHT22;30138;20.964;105.830;2022-07-23T22:50:21;28.30;99.90
44435;DHT22;30138;20.964;105.830;2022-07-23T22:55:28;28.30;99.90
44435;DHT22;30138;20.964;105.830;2022-07-23T23:00:36;28.30;99.90
44435;DHT22;30138;20.964;105.830;2022-07-23T23:05:42;28.40;99.90
44435;DHT22;30138;20.964;105.830;2022-07-23T23:10:48;28.40;99.90
44435;DHT22;30138;20.964;105.830;2022-07-23T23:15:56;28.40;99.90
44435;DHT22;30138;20.964;105.830;2022-07-23T23:21:02;28.50;99.90
44435;DHT22;30138;20.964;105.830;2022-07-23T23:26:09;28.60;99.90
44435;DHT22;30138;20.964;105.830;2022-07-23T23:31:17;28.60;99.90
44435;DHT22;30138;20.964;105.830;2022-07-23T23:36:24;28.30;95.60
44435;DHT22;30138;20.964;105.830;2022-07-23T23:41:30;28.30;99.90
44435;DHT22;30138;20.964;105.830;2022-07-23T23:46:39;28.40;99.90
44435;DHT22;30138;20.964;105.830;2022-07-23T23:51:45;28.40;99.90
44435;DHT22;30138;20.964;105.830;2022-07-23T23:56:51;28.40;99.90
